createdAt,value
2023-05-25T00:01:01.802Z,18.02
2023-05-25T00:02:07.275Z,17.99
2023-05-25T00:03:10.132Z,17.88
2023-05-25T00:04:17.341Z,17.82
2023-05-25T00:05:20.974Z,17.85
2023-05-25T00:06:22.971Z,17.82
2023-05-25T00:07:24.576Z,17.78
2023-05-25T00:08:26.151Z,17.77
2023-05-25T00:09:27.789Z,17.64
2023-05-25T00:10:29.443Z,17.54
2023-05-25T00:11:31.014Z,17.40
2023-05-25T00:12:33.552Z,17.26
2023-05-25T00:13:35.503Z,17.14
2023-05-25T00:14:37.085Z,17.02
2023-05-25T00:15:38.646Z,16.95
2023-05-25T00:16:40.806Z,16.90
2023-05-25T00:17:43.177Z,16.79
2023-05-25T00:18:45.583Z,16.75
2023-05-25T00:19:47.518Z,16.72
2023-05-25T00:20:49.096Z,16.71
2023-05-25T00:21:51.258Z,16.70
2023-05-25T00:22:56.228Z,16.71
2023-05-25T00:23:57.822Z,16.72
2023-05-25T00:24:59.429Z,16.86
2023-05-25T00:26:03.414Z,17.03
2023-05-25T00:27:07.028Z,17.12
2023-05-25T00:28:08.652Z,17.21
2023-05-25T00:29:10.214Z,17.26
2023-05-25T00:30:12.200Z,17.32
2023-05-25T00:31:13.936Z,17.39
2023-05-25T00:32:15.821Z,17.47
2023-05-25T00:33:17.433Z,17.55
2023-05-25T00:34:19.087Z,17.63
2023-05-25T00:35:20.738Z,17.71
2023-05-25T00:36:22.350Z,17.78
2023-05-25T00:37:23.951Z,17.85
2023-05-25T00:38:25.696Z,17.89
2023-05-25T00:39:28.112Z,17.88
2023-05-25T00:40:29.867Z,17.86
2023-05-25T00:41:32.219Z,17.94
2023-05-25T00:42:33.990Z,18.01
2023-05-25T00:43:35.726Z,18.10
2023-05-25T00:44:37.381Z,18.21
2023-05-25T00:45:39.165Z,18.23
2023-05-25T00:46:48.029Z,18.20
2023-05-25T00:47:51.977Z,18.09
2023-05-25T00:48:55.093Z,17.97
2023-05-25T00:49:57.801Z,17.79
2023-05-25T00:51:00.116Z,17.69
2023-05-25T00:52:01.981Z,17.70
2023-05-25T00:53:04.650Z,17.70
2023-05-25T00:54:06.502Z,17.71
2023-05-25T00:55:11.787Z,17.71
2023-05-25T00:56:13.913Z,17.69
2023-05-25T00:57:21.157Z,17.69
2023-05-25T00:58:27.110Z,17.69
2023-05-25T00:59:42.126Z,17.71
2023-05-25T01:00:46.258Z,17.74
2023-05-25T01:01:49.805Z,17.76
2023-05-25T01:02:53.188Z,17.80
2023-05-25T01:03:57.703Z,17.82
2023-05-25T01:05:02.702Z,17.85
2023-05-25T01:06:09.725Z,17.86
2023-05-25T01:07:17.704Z,17.89
2023-05-25T01:08:22.719Z,17.90
2023-05-25T01:09:27.240Z,17.93
2023-05-25T01:10:33.334Z,17.96
2023-05-25T01:11:37.366Z,18.01
2023-05-25T01:12:40.643Z,18.05
2023-05-25T01:13:43.215Z,18.03
2023-05-25T01:14:48.240Z,17.99
2023-05-25T01:15:51.327Z,18.01
2023-05-25T01:16:55.224Z,17.88
2023-05-25T01:17:59.740Z,17.78
2023-05-25T01:19:02.398Z,17.71
2023-05-25T01:20:11.327Z,17.58
2023-05-25T01:21:22.173Z,17.49
2023-05-25T01:22:40.481Z,17.50
2023-05-25T01:23:47.996Z,17.51
2023-05-25T01:24:56.060Z,17.54
2023-05-25T01:26:00.248Z,17.49
2023-05-25T01:27:09.212Z,17.48
2023-05-25T01:28:18.579Z,17.37
2023-05-25T01:29:22.893Z,17.31
2023-05-25T01:30:26.484Z,17.29
2023-05-25T01:31:29.710Z,17.21
2023-05-25T01:32:32.563Z,17.15
2023-05-25T01:33:36.305Z,17.17
2023-05-25T01:34:39.783Z,17.13
2023-05-25T01:35:42.175Z,17.17
2023-05-25T01:36:43.926Z,17.21
2023-05-25T01:37:46.920Z,17.21
2023-05-25T01:38:49.448Z,17.25
2023-05-25T01:39:51.182Z,17.24
2023-05-25T01:40:52.788Z,17.23
2023-05-25T01:41:54.403Z,17.25
2023-05-25T01:42:56.035Z,17.25
2023-05-25T01:43:57.780Z,17.28
2023-05-25T01:45:00.204Z,17.31
2023-05-25T01:46:26.853Z,17.31
2023-05-25T01:47:40.914Z,17.24
2023-05-25T01:48:58.556Z,17.23
2023-05-25T01:50:43.431Z,17.26
2023-05-25T01:51:59.939Z,17.30
2023-05-25T01:53:09.642Z,17.34
2023-05-25T01:54:19.729Z,17.36
2023-05-25T01:55:22.791Z,17.35
2023-05-25T01:56:27.375Z,17.35
2023-05-25T01:57:29.766Z,17.34
2023-05-25T01:58:38.982Z,17.33
2023-05-25T01:59:43.495Z,17.34
2023-05-25T02:00:48.938Z,17.35
2023-05-25T02:01:53.487Z,17.35
2023-05-25T02:02:57.004Z,17.18
2023-05-25T02:03:59.514Z,16.91
2023-05-25T02:05:01.848Z,16.81
2023-05-25T02:06:03.746Z,16.81
2023-05-25T02:07:06.310Z,16.85
2023-05-25T02:08:08.010Z,16.91
2023-05-25T02:09:09.797Z,16.93
2023-05-25T02:10:11.494Z,16.98
2023-05-25T02:11:14.774Z,17.00
2023-05-25T02:12:16.469Z,17.03
2023-05-25T02:13:18.149Z,17.06
2023-05-25T02:14:19.832Z,17.11
2023-05-25T02:15:22.640Z,17.13
2023-05-25T02:16:24.350Z,17.13
2023-05-25T02:17:30.301Z,16.98
2023-05-25T02:18:32.134Z,16.84
2023-05-25T02:19:33.879Z,16.79
2023-05-25T02:20:37.538Z,16.78
2023-05-25T02:21:39.228Z,16.80
2023-05-25T02:22:41.007Z,16.81
2023-05-25T02:23:43.535Z,16.81
2023-05-25T02:24:45.077Z,16.92
2023-05-25T02:25:46.784Z,16.96
2023-05-25T02:26:48.433Z,16.99
2023-05-25T02:27:50.755Z,17.00
2023-05-25T02:28:52.366Z,17.01
2023-05-25T02:29:54.021Z,16.99
2023-05-25T02:30:55.768Z,16.96
2023-05-25T02:31:57.346Z,16.91
2023-05-25T02:32:58.929Z,16.91
2023-05-25T02:34:00.634Z,16.95
2023-05-25T02:35:02.200Z,16.97
2023-05-25T02:36:05.329Z,16.96
2023-05-25T02:37:06.965Z,16.96
2023-05-25T02:38:08.628Z,16.96
2023-05-25T02:39:11.447Z,16.97
2023-05-25T02:40:13.964Z,16.97
2023-05-25T02:41:21.784Z,16.93
2023-05-25T02:42:23.376Z,16.82
2023-05-25T02:43:24.935Z,16.75
2023-05-25T02:44:26.543Z,16.68
2023-05-25T02:45:28.160Z,16.61
2023-05-25T02:46:29.830Z,16.45
2023-05-25T02:47:31.626Z,16.32
2023-05-25T02:48:33.268Z,16.14
2023-05-25T02:49:34.914Z,16.09
2023-05-25T02:50:37.116Z,15.96
2023-05-25T02:51:38.738Z,15.92
2023-05-25T02:52:40.711Z,15.88
2023-05-25T02:53:42.334Z,15.88
2023-05-25T02:54:43.927Z,15.83
2023-05-25T02:55:45.772Z,15.80
2023-05-25T02:56:47.555Z,15.74
2023-05-25T02:57:49.197Z,15.69
2023-05-25T02:58:50.877Z,15.64
2023-05-25T02:59:52.809Z,15.60
2023-05-25T03:00:55.409Z,15.55
2023-05-25T03:01:58.772Z,15.49
2023-05-25T03:03:00.439Z,15.40
2023-05-25T03:04:02.221Z,15.34
2023-05-25T03:05:04.842Z,15.32
2023-05-25T03:06:06.673Z,15.31
2023-05-25T03:07:08.232Z,15.22
2023-05-25T03:08:09.813Z,15.24
2023-05-25T03:09:12.437Z,15.30
2023-05-25T03:10:14.010Z,15.34
2023-05-25T03:11:15.592Z,15.34
2023-05-25T03:12:17.208Z,15.37
2023-05-25T03:13:18.776Z,15.41
2023-05-25T03:14:20.491Z,15.54
2023-05-25T03:15:23.180Z,15.65
2023-05-25T03:16:26.049Z,15.75
2023-05-25T03:17:27.794Z,15.85
2023-05-25T03:18:29.406Z,15.84
2023-05-25T03:19:32.367Z,15.90
2023-05-25T03:20:34.809Z,15.91
2023-05-25T03:21:37.569Z,15.96
2023-05-25T03:22:39.162Z,15.97
2023-05-25T03:23:40.818Z,15.99
2023-05-25T03:24:42.427Z,15.95
2023-05-25T03:25:44.239Z,15.78
2023-05-25T03:26:46.129Z,15.71
2023-05-25T03:27:47.680Z,15.75
2023-05-25T03:28:49.215Z,15.75
2023-05-25T03:29:51.016Z,15.77
2023-05-25T03:30:52.632Z,15.80
2023-05-25T03:31:54.201Z,15.89
2023-05-25T03:32:55.833Z,15.93
2023-05-25T03:33:57.452Z,15.96
2023-05-25T03:34:59.043Z,15.99
2023-05-25T03:36:00.784Z,16.03
2023-05-25T03:37:02.360Z,16.06
2023-05-25T03:38:03.963Z,16.05
2023-05-25T03:39:06.144Z,16.06
2023-05-25T03:40:09.576Z,16.15
2023-05-25T03:41:11.790Z,16.14
2023-05-25T03:42:13.389Z,16.09
2023-05-25T03:43:14.986Z,16.06
2023-05-25T03:44:16.686Z,15.95
2023-05-25T03:45:18.486Z,15.85
2023-05-25T03:46:20.129Z,15.80
2023-05-25T03:47:21.815Z,15.77
2023-05-25T03:48:23.490Z,15.82
2023-05-25T03:49:25.074Z,15.85
2023-05-25T03:50:26.666Z,15.93
2023-05-25T03:51:29.476Z,16.03
2023-05-25T03:52:31.162Z,16.10
2023-05-25T03:53:32.747Z,16.19
2023-05-25T03:54:34.353Z,16.26
2023-05-25T03:55:38.601Z,16.34
2023-05-25T03:56:40.339Z,16.38
2023-05-25T03:57:42.389Z,16.39
2023-05-25T03:58:43.969Z,16.30
2023-05-25T03:59:45.611Z,16.27
2023-05-25T04:00:49.796Z,16.30
2023-05-25T04:01:51.814Z,16.37
2023-05-25T04:02:53.473Z,16.44
2023-05-25T04:03:55.370Z,16.46
2023-05-25T04:04:57.409Z,16.43
2023-05-25T04:06:00.522Z,16.38
2023-05-25T04:07:02.259Z,16.22
2023-05-25T04:08:04.100Z,16.11
2023-05-25T04:09:05.771Z,16.18
2023-05-25T04:10:07.842Z,16.23
2023-05-25T04:11:09.446Z,16.12
2023-05-25T04:12:11.025Z,16.12
2023-05-25T04:13:15.095Z,16.10
2023-05-25T04:14:16.665Z,16.02
2023-05-25T04:15:18.337Z,16.00
2023-05-25T04:16:20.005Z,15.89
2023-05-25T04:17:24.901Z,16.01
2023-05-25T04:18:26.550Z,16.18
2023-05-25T04:19:28.172Z,16.21
2023-05-25T04:20:30.047Z,16.38
2023-05-25T04:21:32.209Z,16.55
2023-05-25T04:22:33.763Z,16.60
2023-05-25T04:23:35.482Z,16.71
2023-05-25T04:24:37.062Z,16.83
2023-05-25T04:25:38.672Z,17.01
2023-05-25T04:26:40.409Z,17.22
2023-05-25T04:27:42.335Z,17.35
2023-05-25T04:28:44.109Z,17.47
2023-05-25T04:29:45.703Z,17.62
2023-05-25T04:30:48.109Z,17.74
2023-05-25T04:31:51.648Z,17.79
2023-05-25T04:32:54.979Z,17.82
2023-05-25T04:33:56.785Z,17.94
2023-05-25T04:34:59.210Z,18.05
2023-05-25T04:36:01.070Z,18.12
2023-05-25T04:37:05.521Z,18.18
2023-05-25T04:38:07.380Z,18.04
2023-05-25T04:39:09.424Z,17.90
2023-05-25T04:40:12.066Z,17.97
2023-05-25T04:41:14.573Z,18.07
2023-05-25T04:42:17.093Z,18.10
2023-05-25T04:43:20.482Z,18.12
2023-05-25T04:44:22.088Z,18.17
2023-05-25T04:45:24.019Z,18.19
2023-05-25T04:46:29.956Z,18.27
2023-05-25T04:47:31.615Z,18.35
2023-05-25T04:48:34.230Z,18.39
2023-05-25T04:49:35.881Z,18.43
2023-05-25T04:50:40.245Z,18.50
2023-05-25T04:51:41.816Z,18.57
2023-05-25T04:52:43.442Z,18.65
2023-05-25T04:53:45.048Z,18.69
2023-05-25T04:54:46.927Z,18.68
2023-05-25T04:55:49.664Z,18.70
2023-05-25T04:56:51.304Z,18.69
2023-05-25T04:57:54.750Z,18.74
2023-05-25T04:58:56.356Z,18.80
2023-05-25T04:59:58.643Z,18.75
2023-05-25T05:01:00.521Z,18.74
2023-05-25T05:02:02.175Z,18.72
2023-05-25T05:03:03.948Z,18.71
2023-05-25T05:04:05.802Z,18.66
2023-05-25T05:05:07.850Z,18.57
2023-05-25T05:06:10.869Z,18.48
2023-05-25T05:07:12.679Z,18.53
2023-05-25T05:08:14.456Z,18.57
2023-05-25T05:09:16.091Z,18.61
2023-05-25T05:10:18.524Z,18.66
2023-05-25T05:11:20.166Z,18.70
2023-05-25T05:12:21.874Z,18.76
2023-05-25T05:13:23.558Z,18.84
2023-05-25T05:14:25.167Z,18.91
2023-05-25T05:15:26.920Z,18.98
2023-05-25T05:16:33.716Z,18.97
2023-05-25T05:17:35.491Z,19.07
2023-05-25T05:18:37.145Z,19.13
2023-05-25T05:19:38.843Z,19.20
2023-05-25T05:20:41.151Z,19.28
2023-05-25T05:21:42.899Z,19.39
2023-05-25T05:22:45.618Z,19.49
2023-05-25T05:23:47.302Z,19.55
2023-05-25T05:24:48.986Z,19.59
2023-05-25T05:25:50.611Z,19.64
2023-05-25T05:26:58.263Z,19.72
2023-05-25T05:28:00.627Z,19.84
2023-05-25T05:29:02.190Z,19.91
2023-05-25T05:30:04.192Z,19.93
2023-05-25T05:31:06.866Z,20.02
2023-05-25T05:32:08.668Z,20.12
2023-05-25T05:33:10.404Z,20.21
2023-05-25T05:34:12.061Z,20.26
2023-05-25T05:35:13.738Z,20.28
2023-05-25T05:36:15.625Z,20.43
2023-05-25T05:37:17.358Z,20.46
2023-05-25T05:38:19.271Z,20.45
2023-05-25T05:39:20.862Z,20.64
2023-05-25T05:40:22.471Z,20.82
2023-05-25T05:41:24.072Z,20.98
2023-05-25T05:42:25.836Z,21.11
2023-05-25T05:43:27.410Z,21.30
2023-05-25T05:44:29.678Z,21.46
2023-05-25T05:45:31.332Z,21.56
2023-05-25T05:46:33.026Z,21.68
2023-05-25T05:47:34.694Z,21.73
2023-05-25T05:48:37.375Z,21.74
2023-05-25T05:49:39.478Z,21.74
2023-05-25T05:50:42.270Z,21.79
2023-05-25T05:51:44.236Z,21.82
2023-05-25T05:52:45.836Z,21.85
2023-05-25T05:53:47.456Z,21.96
2023-05-25T05:54:49.033Z,22.04
2023-05-25T05:55:56.140Z,22.10
2023-05-25T05:56:58.156Z,22.23
2023-05-25T05:57:59.797Z,22.26
2023-05-25T05:59:01.465Z,22.32
2023-05-25T06:00:06.725Z,22.32
2023-05-25T06:01:09.145Z,22.39
2023-05-25T06:02:10.798Z,22.40
2023-05-25T06:03:12.400Z,22.51
2023-05-25T06:04:15.126Z,22.54
2023-05-25T06:05:17.202Z,22.65
2023-05-25T06:06:19.031Z,22.78
2023-05-25T06:07:20.992Z,22.83
2023-05-25T06:08:22.633Z,22.67
2023-05-25T06:09:24.303Z,22.38
2023-05-25T06:10:25.977Z,22.41
2023-05-25T06:11:27.692Z,22.32
2023-05-25T06:12:29.376Z,22.14
2023-05-25T06:13:30.940Z,22.28
2023-05-25T06:14:32.556Z,22.38
2023-05-25T06:15:35.408Z,22.35
2023-05-25T06:16:37.457Z,22.31
2023-05-25T06:17:39.173Z,22.35
2023-05-25T06:18:40.894Z,22.46
2023-05-25T06:19:42.887Z,22.59
2023-05-25T06:20:44.782Z,22.54
2023-05-25T06:21:46.500Z,22.57
2023-05-25T06:22:48.154Z,22.55
2023-05-25T06:23:49.780Z,22.46
2023-05-25T06:24:51.630Z,22.33
2023-05-25T06:25:54.482Z,21.92
2023-05-25T06:26:56.207Z,21.74
2023-05-25T06:27:57.876Z,21.61
2023-05-25T06:28:59.465Z,21.49
2023-05-25T06:30:01.102Z,21.59
2023-05-25T06:31:02.731Z,21.70
2023-05-25T06:32:04.734Z,21.82
2023-05-25T06:33:08.584Z,21.79
2023-05-25T06:34:10.442Z,21.74
2023-05-25T06:35:19.546Z,21.70
2023-05-25T06:36:22.115Z,21.79
2023-05-25T06:37:23.823Z,21.94
2023-05-25T06:38:25.506Z,22.16
2023-05-25T06:39:27.110Z,22.45
2023-05-25T06:40:28.701Z,22.68
2023-05-25T06:41:30.961Z,22.86
2023-05-25T06:42:32.545Z,22.95
2023-05-25T06:43:34.175Z,23.04
2023-05-25T06:44:35.876Z,23.12
2023-05-25T06:45:37.498Z,23.21
2023-05-25T06:46:39.945Z,23.33
2023-05-25T06:47:41.672Z,23.37
2023-05-25T06:48:43.640Z,23.07
2023-05-25T06:49:45.232Z,22.73
2023-05-25T06:50:46.801Z,22.71
2023-05-25T06:51:49.100Z,22.85
2023-05-25T06:52:51.272Z,22.93
2023-05-25T06:53:56.027Z,22.88
2023-05-25T06:54:58.269Z,22.38
2023-05-25T06:55:59.937Z,22.32
2023-05-25T06:57:01.548Z,22.35
2023-05-25T06:58:03.269Z,22.43
2023-05-25T06:59:05.447Z,22.59
2023-05-25T07:00:13.532Z,22.86
2023-05-25T07:01:16.026Z,23.14
2023-05-25T07:02:18.916Z,23.36
2023-05-25T07:03:21.017Z,23.39
2023-05-25T07:04:23.300Z,23.46
2023-05-25T07:05:25.117Z,23.51
2023-05-25T07:06:26.751Z,23.32
2023-05-25T07:07:28.348Z,23.09
2023-05-25T07:08:30.071Z,22.99
2023-05-25T07:09:31.819Z,22.96
2023-05-25T07:10:33.982Z,22.69
2023-05-25T07:11:35.696Z,22.79
2023-05-25T07:12:37.310Z,23.04
2023-05-25T07:13:38.987Z,23.27
2023-05-25T07:14:40.733Z,23.57
2023-05-25T07:15:42.563Z,23.82
2023-05-25T07:16:45.321Z,23.95
2023-05-25T07:17:47.422Z,24.12
2023-05-25T07:18:49.118Z,24.00
2023-05-25T07:19:51.094Z,23.99
2023-05-25T07:20:53.604Z,23.92
2023-05-25T07:21:55.200Z,24.06
2023-05-25T07:22:56.874Z,23.93
2023-05-25T07:23:58.521Z,23.71
2023-05-25T07:25:00.289Z,23.37
2023-05-25T07:26:04.986Z,23.46
2023-05-25T07:27:08.302Z,23.70
2023-05-25T07:28:09.906Z,23.96
2023-05-25T07:29:12.620Z,24.15
2023-05-25T07:30:14.444Z,24.08
2023-05-25T07:31:16.542Z,23.85
2023-05-25T07:32:18.123Z,23.66
2023-05-25T07:33:19.788Z,23.68
2023-05-25T07:34:21.420Z,23.70
2023-05-25T07:35:23.014Z,23.84
2023-05-25T07:36:25.053Z,23.84
2023-05-25T07:37:26.782Z,23.87
2023-05-25T07:38:28.381Z,23.98
2023-05-25T07:39:29.953Z,24.18
2023-05-25T07:40:31.597Z,24.12
2023-05-25T07:41:33.784Z,24.25
2023-05-25T07:42:35.597Z,24.24
2023-05-25T07:43:37.507Z,24.27
2023-05-25T07:44:39.105Z,24.18
2023-05-25T07:45:40.738Z,24.20
2023-05-25T07:46:43.167Z,24.26
2023-05-25T07:47:44.870Z,24.43
2023-05-25T07:48:46.557Z,24.53
2023-05-25T07:49:48.144Z,24.83
2023-05-25T07:50:49.731Z,25.03
2023-05-25T07:51:51.382Z,24.87
2023-05-25T07:52:53.001Z,24.96
2023-05-25T07:53:56.592Z,24.95
2023-05-25T07:54:58.283Z,24.84
2023-05-25T07:55:59.905Z,24.94
2023-05-25T07:57:01.666Z,25.13
2023-05-25T07:58:03.819Z,25.37
2023-05-25T07:59:06.170Z,25.45
2023-05-25T08:00:09.419Z,25.36
2023-05-25T08:01:10.979Z,25.32
2023-05-25T08:02:12.654Z,25.37
2023-05-25T08:03:14.374Z,25.45
2023-05-25T08:04:16.245Z,25.50
2023-05-25T08:05:17.995Z,25.65
2023-05-25T08:06:19.711Z,25.75
2023-05-25T08:07:21.608Z,25.78
2023-05-25T08:08:24.804Z,25.78
2023-05-25T08:09:26.355Z,25.72
2023-05-25T08:10:32.198Z,25.74
2023-05-25T08:11:33.822Z,25.76
2023-05-25T08:12:47.699Z,25.80
2023-05-25T08:13:51.232Z,25.85
2023-05-25T08:14:54.169Z,25.93
2023-05-25T08:15:55.842Z,26.06
2023-05-25T08:16:57.424Z,26.05
2023-05-25T08:17:59.180Z,26.11
2023-05-25T08:19:01.722Z,26.02
2023-05-25T08:20:06.242Z,25.98
2023-05-25T08:21:07.874Z,25.89
2023-05-25T08:22:09.609Z,25.93
2023-05-25T08:23:11.299Z,26.02
2023-05-25T08:24:12.881Z,26.10
2023-05-25T08:25:14.547Z,26.22
2023-05-25T08:26:34.221Z,26.32
2023-05-25T08:27:38.007Z,26.49
2023-05-25T08:28:39.720Z,26.38
2023-05-25T08:29:41.321Z,26.38
2023-05-25T08:30:44.712Z,26.38
2023-05-25T08:31:49.628Z,26.38
2023-05-25T08:32:51.623Z,26.37
2023-05-25T08:33:53.362Z,26.56
2023-05-25T08:34:55.006Z,26.67
2023-05-25T08:35:57.114Z,26.66
2023-05-25T08:36:58.768Z,26.51
2023-05-25T08:38:00.726Z,26.47
2023-05-25T08:39:04.661Z,26.26
2023-05-25T08:40:15.181Z,25.78
2023-05-25T08:41:16.992Z,25.59
2023-05-25T08:42:18.699Z,25.55
2023-05-25T08:43:20.420Z,25.60
2023-05-25T08:44:22.313Z,25.76
2023-05-25T08:45:35.254Z,25.87
2023-05-25T08:46:38.470Z,25.81
2023-05-25T08:47:44.775Z,25.91
2023-05-25T08:48:49.310Z,26.10
2023-05-25T08:49:52.854Z,26.30
2023-05-25T08:50:55.073Z,26.41
2023-05-25T08:51:57.510Z,26.39
2023-05-25T08:53:03.426Z,26.45
2023-05-25T08:54:14.017Z,26.39
2023-05-25T08:55:18.506Z,26.15
2023-05-25T08:56:20.769Z,26.02
2023-05-25T08:57:57.899Z,26.11
2023-05-25T08:59:08.573Z,26.24
2023-05-25T09:00:14.319Z,26.32
2023-05-25T09:01:20.038Z,26.30
2023-05-25T09:02:42.383Z,26.32
2023-05-25T09:03:46.313Z,26.32
2023-05-25T09:04:48.133Z,26.23
2023-05-25T09:05:50.807Z,26.16
2023-05-25T09:07:58.935Z,25.91
2023-05-25T09:09:00.641Z,25.75
2023-05-25T09:10:03.033Z,25.79
2023-05-25T09:11:07.635Z,26.00
2023-05-25T09:12:09.984Z,26.10
2023-05-25T09:13:20.453Z,26.12
2023-05-25T09:14:24.366Z,26.16
2023-05-25T09:15:26.068Z,26.23
2023-05-25T09:16:28.231Z,26.25
2023-05-25T09:17:30.381Z,26.22
2023-05-25T09:18:32.154Z,26.24
2023-05-25T09:19:36.504Z,26.30
2023-05-25T09:20:38.219Z,26.43
2023-05-25T09:21:40.314Z,26.61
2023-05-25T09:22:42.430Z,26.65
2023-05-25T09:23:45.702Z,26.75
2023-05-25T09:24:47.869Z,26.79
2023-05-25T09:25:51.112Z,26.77
2023-05-25T09:26:52.731Z,26.52
2023-05-25T09:27:56.354Z,26.40
2023-05-25T09:28:58.021Z,26.41
2023-05-25T09:30:01.154Z,26.45
2023-05-25T09:31:02.795Z,26.58
2023-05-25T09:32:08.533Z,26.72
2023-05-25T09:33:14.359Z,26.72
2023-05-25T09:34:16.003Z,26.72
2023-05-25T09:35:17.812Z,26.60
2023-05-25T09:36:22.053Z,26.44
2023-05-25T09:37:24.061Z,26.37
2023-05-25T09:38:26.070Z,26.25
2023-05-25T09:39:28.274Z,26.03
2023-05-25T09:40:33.233Z,26.03
2023-05-25T09:41:35.080Z,26.08
2023-05-25T09:42:38.028Z,26.26
2023-05-25T09:43:46.748Z,26.21
2023-05-25T09:44:58.905Z,26.00
2023-05-25T09:46:00.939Z,26.02
2023-05-25T09:47:02.957Z,25.92
2023-05-25T09:48:06.310Z,25.73
2023-05-25T09:49:09.370Z,25.68
2023-05-25T09:50:11.788Z,25.78
2023-05-25T09:51:13.406Z,26.01
2023-05-25T09:52:15.859Z,26.24
2023-05-25T09:53:17.463Z,26.34
2023-05-25T09:54:19.253Z,26.46
2023-05-25T09:55:20.825Z,26.39
2023-05-25T09:56:23.931Z,26.40
2023-05-25T09:57:27.318Z,26.55
2023-05-25T09:58:29.009Z,26.66
2023-05-25T09:59:31.268Z,26.70
2023-05-25T10:00:33.298Z,26.72
2023-05-25T10:01:35.342Z,26.67
2023-05-25T10:02:37.074Z,26.69
2023-05-25T10:04:03.010Z,26.86
2023-05-25T10:05:07.492Z,26.89
2023-05-25T10:06:09.311Z,26.88
2023-05-25T10:07:11.902Z,26.85
2023-05-25T10:08:14.140Z,26.90
2023-05-25T10:09:18.963Z,27.03
2023-05-25T10:10:20.685Z,27.06
2023-05-25T10:11:22.905Z,27.01
2023-05-25T10:12:25.953Z,26.73
2023-05-25T10:13:30.626Z,26.49
2023-05-25T10:14:35.892Z,26.37
2023-05-25T10:15:40.862Z,26.10
2023-05-25T10:16:47.536Z,26.01
2023-05-25T10:17:58.482Z,25.98
2023-05-25T10:19:22.095Z,25.84
2023-05-25T10:20:28.280Z,25.80
2023-05-25T10:21:33.281Z,25.69
2023-05-25T10:22:44.524Z,25.58
2023-05-25T10:23:50.760Z,25.53
2023-05-25T10:25:04.129Z,25.44
2023-05-25T10:26:06.829Z,25.42
2023-05-25T10:27:25.649Z,25.32
2023-05-25T10:28:31.367Z,25.38
2023-05-25T10:29:33.713Z,25.33
2023-05-25T10:30:37.146Z,25.29
2023-05-25T10:31:39.804Z,25.31
2023-05-25T10:32:44.383Z,25.36
2023-05-25T10:33:50.555Z,25.29
2023-05-25T10:34:56.694Z,25.25
2023-05-25T10:36:09.281Z,25.32
2023-05-25T10:37:14.399Z,25.32
2023-05-25T10:38:18.532Z,25.31
2023-05-25T10:39:20.466Z,25.33
2023-05-25T10:40:22.961Z,25.35
2023-05-25T10:41:24.592Z,25.36
2023-05-25T10:42:27.960Z,25.44
2023-05-25T10:43:30.248Z,25.49
2023-05-25T10:44:31.953Z,25.62
2023-05-25T10:45:34.105Z,25.73
2023-05-25T10:46:36.655Z,25.81
2023-05-25T10:47:44.142Z,25.89
2023-05-25T10:48:48.551Z,26.01
2023-05-25T10:49:58.697Z,26.10
2023-05-25T10:51:00.538Z,26.11
2023-05-25T10:52:03.647Z,26.06
2023-05-25T10:53:16.139Z,26.10
2023-05-25T10:54:19.714Z,26.15
2023-05-25T10:55:21.586Z,26.24
2023-05-25T10:56:23.214Z,26.16
2023-05-25T10:57:25.647Z,26.04
2023-05-25T10:58:28.445Z,26.02
2023-05-25T10:59:30.069Z,26.08
2023-05-25T11:00:32.167Z,26.05
2023-05-25T11:01:51.248Z,25.96
2023-05-25T11:02:55.688Z,25.86
2023-05-25T11:04:17.271Z,25.58
2023-05-25T11:05:27.925Z,25.46
2023-05-25T11:06:41.772Z,25.41
2023-05-25T11:07:57.380Z,25.29
2023-05-25T11:09:00.600Z,25.23
2023-05-25T11:10:03.487Z,25.28
2023-05-25T11:11:05.125Z,25.24
2023-05-25T11:12:06.986Z,25.17
2023-05-25T11:13:39.718Z,24.95
2023-05-25T11:14:43.587Z,25.07
2023-05-25T11:15:45.421Z,25.07
2023-05-25T11:17:11.567Z,24.39
2023-05-25T11:18:16.568Z,23.84
2023-05-25T11:19:18.384Z,23.56
2023-05-25T11:20:24.320Z,23.44
2023-05-25T11:21:30.216Z,23.23
2023-05-25T11:22:35.494Z,22.92
2023-05-25T11:23:52.082Z,22.69
2023-05-25T11:24:54.007Z,22.36
2023-05-25T11:26:05.042Z,21.88
2023-05-25T11:27:08.837Z,21.57
2023-05-25T11:28:11.984Z,21.23
2023-05-25T11:29:15.829Z,20.95
2023-05-25T11:30:20.574Z,20.74
2023-05-25T11:31:39.099Z,20.69
2023-05-25T11:32:50.630Z,20.45
2023-05-25T11:33:57.509Z,20.36
2023-05-25T11:34:59.533Z,20.25
2023-05-25T11:36:01.609Z,20.09
2023-05-25T11:37:04.192Z,20.05
2023-05-25T11:38:07.170Z,19.98
2023-05-25T11:39:16.937Z,19.93
2023-05-25T11:40:24.147Z,19.89
2023-05-25T11:41:26.255Z,19.84
2023-05-25T11:42:29.234Z,19.84
2023-05-25T11:43:34.150Z,19.86
2023-05-25T11:44:36.873Z,19.82
2023-05-25T11:45:39.363Z,19.87
2023-05-25T11:46:43.761Z,19.87
2023-05-25T11:47:45.772Z,19.86
2023-05-25T11:48:54.696Z,19.90
2023-05-25T11:49:56.590Z,19.92
2023-05-25T11:51:06.054Z,19.96
2023-05-25T11:52:07.871Z,20.04
2023-05-25T11:53:10.890Z,20.07
2023-05-25T11:54:24.625Z,20.12
2023-05-25T11:55:26.524Z,20.15
2023-05-25T11:56:35.714Z,20.19
2023-05-25T11:57:37.867Z,20.19
2023-05-25T11:58:40.106Z,20.22
2023-05-25T11:59:48.995Z,20.28
2023-05-25T12:00:50.701Z,20.35
2023-05-25T12:02:18.828Z,20.40
2023-05-25T12:03:32.015Z,20.45
2023-05-25T12:04:34.209Z,20.52
2023-05-25T12:05:39.743Z,20.59
2023-05-25T12:06:41.794Z,20.66
2023-05-25T12:07:44.827Z,20.71
2023-05-25T12:08:46.580Z,20.77
2023-05-25T12:09:48.220Z,20.80
2023-05-25T12:10:52.524Z,20.79
2023-05-25T12:11:54.184Z,20.77
2023-05-25T12:12:58.598Z,20.78
2023-05-25T12:14:03.500Z,20.83
2023-05-25T12:15:05.728Z,20.87
2023-05-25T12:16:07.456Z,20.85
2023-05-25T12:17:10.554Z,20.88
2023-05-25T12:18:12.500Z,20.83
2023-05-25T12:19:14.520Z,20.75
2023-05-25T12:20:17.579Z,20.78
2023-05-25T12:21:21.825Z,20.86
2023-05-25T12:22:23.533Z,20.80
2023-05-25T12:23:25.723Z,20.79
2023-05-25T12:24:27.391Z,20.75
2023-05-25T12:25:38.759Z,20.81
2023-05-25T12:26:59.182Z,20.82
2023-05-25T12:28:14.888Z,20.82
2023-05-25T12:29:16.602Z,20.79
2023-05-25T12:30:18.377Z,20.76
2023-05-25T12:31:23.538Z,20.83
2023-05-25T12:32:25.747Z,20.85
2023-05-25T12:33:27.535Z,20.83
2023-05-25T12:34:29.215Z,20.88
2023-05-25T12:35:45.409Z,20.97
2023-05-25T12:36:52.269Z,21.01
2023-05-25T12:38:13.320Z,20.98
2023-05-25T12:39:17.509Z,20.98
2023-05-25T12:40:20.962Z,21.01
2023-05-25T12:41:22.842Z,21.06
2023-05-25T12:42:30.170Z,21.11
2023-05-25T12:43:43.218Z,21.18
2023-05-25T12:44:46.666Z,21.21
2023-05-25T12:45:48.552Z,21.35
2023-05-25T12:46:52.338Z,21.42
2023-05-25T12:47:54.139Z,21.51
2023-05-25T12:48:56.284Z,21.60
2023-05-25T12:50:16.415Z,21.73
2023-05-25T12:51:18.011Z,21.79
2023-05-25T12:52:51.818Z,21.96
2023-05-25T12:53:54.403Z,21.90
2023-05-25T12:54:56.298Z,21.92
2023-05-25T12:56:04.557Z,22.00
2023-05-25T12:57:07.863Z,22.08
2023-05-25T12:58:27.341Z,22.16
2023-05-25T12:59:30.604Z,22.20
2023-05-25T13:00:33.358Z,22.22
2023-05-25T13:01:35.688Z,22.36
2023-05-25T13:02:37.497Z,22.43
2023-05-25T13:03:39.777Z,22.49
2023-05-25T13:04:42.221Z,22.67
2023-05-25T13:05:44.632Z,22.79
2023-05-25T13:06:47.627Z,22.81
2023-05-25T13:07:49.595Z,22.79
2023-05-25T13:08:51.174Z,22.84
2023-05-25T13:09:52.859Z,22.92
2023-05-25T13:10:55.925Z,22.97
2023-05-25T13:11:58.031Z,23.02
2023-05-25T13:13:00.073Z,23.00
2023-05-25T13:14:01.998Z,23.02
2023-05-25T13:15:03.889Z,23.15
2023-05-25T13:16:05.795Z,23.25
2023-05-25T13:17:07.932Z,23.30
2023-05-25T13:18:10.816Z,23.43
2023-05-25T13:19:12.506Z,23.55
2023-05-25T13:20:19.237Z,23.53
2023-05-25T13:21:20.831Z,23.47
2023-05-25T13:22:22.478Z,23.53
2023-05-25T13:23:24.158Z,23.50
2023-05-25T13:24:25.817Z,23.58
2023-05-25T13:25:28.223Z,23.68
2023-05-25T13:26:30.085Z,23.70
2023-05-25T13:27:31.798Z,23.73
2023-05-25T13:28:33.398Z,23.76
2023-05-25T13:29:35.148Z,23.85
2023-05-25T13:30:36.743Z,24.00
2023-05-25T13:31:38.461Z,24.01
2023-05-25T13:32:41.949Z,23.92
2023-05-25T13:33:43.641Z,23.94
2023-05-25T13:34:45.277Z,24.00
2023-05-25T13:35:58.606Z,24.03
2023-05-25T13:37:00.629Z,24.11
2023-05-25T13:38:02.353Z,24.17
2023-05-25T13:39:05.451Z,24.29
2023-05-25T13:40:07.769Z,24.33
2023-05-25T13:41:09.342Z,24.30